Time,TemperatureF,DewpointF,PressureIn,WindDirection,WindDirectionDegrees,WindSpeedMPH,WindSpeedGustMPH,Humidity,HourlyPrecipIn,Conditions,Clouds,dailyrainin,SolarRadiationWatts/m^2,SoftwareType,DateUTC
2013-06-11 00:01:00,62.0,60.0,-100.00,WSW,257,3.0,10.0,92,0.00,,,1.29,0.000000,,2013-06-11 04:01:00,
2013-06-11 00:23:00,62.0,60.0,-100.00,WSW,257,3.0,10.0,92,0.00,,,1.29,0.000000,,2013-06-11 04:23:00,
2013-06-11 00:33:00,62.0,60.0,-100.00,WSW,257,3.0,10.0,92,0.00,,,1.29,0.000000,,2013-06-11 04:33:00,
2013-06-11 00:43:00,62.0,60.0,-100.00,WSW,257,3.0,10.0,92,0.00,,,1.29,0.000000,,2013-06-11 04:43:00,
2013-06-11 00:53:00,62.0,60.0,-100.00,WSW,257,3.0,10.0,92,0.00,,,1.29,0.000000,,2013-06-11 04:53:00,
2013-06-11 01:01:00,60.0,57.0,-100.00,SW,220,3.0,6.0,91,0.00,,,1.29,0.000000,,2013-06-11 05:01:00,
2013-06-11 01:22:00,60.0,57.0,-100.00,SW,220,3.0,6.0,91,0.00,,,1.29,0.000000,,2013-06-11 05:22:00,
2013-06-11 01:32:00,60.0,57.0,-100.00,SW,220,3.0,6.0,91,0.00,,,1.29,0.000000,,2013-06-11 05:32:00,
2013-06-11 01:42:00,60.0,57.0,-100.00,SW,220,3.0,6.0,91,0.00,,,1.29,0.000000,,2013-06-11 05:42:00,
2013-06-11 01:52:00,60.0,57.0,-100.00,SW,220,3.0,6.0,91,0.00,,,1.29,0.000000,,2013-06-11 05:52:00,
2013-06-11 02:01:00,60.0,58.0,-100.00,SW,216,3.0,6.0,93,0.00,,,1.29,0.000000,,2013-06-11 06:01:00,
2013-06-11 02:22:00,60.0,58.0,-100.00,SW,216,3.0,6.0,93,0.00,,,1.29,0.000000,,2013-06-11 06:22:00,
2013-06-11 02:32:00,60.0,58.0,-100.00,SW,216,3.0,6.0,93,0.00,,,1.29,0.000000,,2013-06-11 06:32:00,
2013-06-11 02:42:00,60.0,58.0,-100.00,SW,216,3.0,6.0,93,0.00,,,1.29,0.000000,,2013-06-11 06:42:00,
2013-06-11 02:52:00,60.0,58.0,-100.00,SW,216,3.0,6.0,93,0.00,,,1.29,0.000000,,2013-06-11 06:52:00,
2013-06-11 03:01:00,61.0,60.0,-100.00,SSW,210,3.0,6.0,98,0.01,,,1.27,0.000000,,2013-06-11 07:01:00,
2013-06-11 03:22:00,61.0,60.0,-100.00,SSW,210,3.0,6.0,98,0.01,,,1.27,0.000000,,2013-06-11 07:22:00,
2013-06-11 03:32:00,61.0,60.0,-100.00,SSW,210,3.0,6.0,98,0.01,,,1.27,0.000000,,2013-06-11 07:32:00,
2013-06-11 03:42:00,61.0,60.0,-100.00,SSW,210,3.0,6.0,98,0.01,,,1.27,0.000000,,2013-06-11 07:42:00,
2013-06-11 03:52:00,61.0,60.0,-100.00,SSW,210,3.0,6.0,98,0.01,,,1.27,0.000000,,2013-06-11 07:52:00,
2013-06-11 04:01:00,61.0,61.0,-100.00,SW,218,1.0,8.0,99,0.00,,,1.24,0.000000,,2013-06-11 08:01:00,
2013-06-11 04:22:00,61.0,61.0,-100.00,SW,218,1.0,8.0,99,0.00,,,1.24,0.000000,,2013-06-11 08:22:00,
2013-06-11 04:32:00,61.0,61.0,-100.00,SW,218,1.0,8.0,99,0.00,,,1.24,0.000000,,2013-06-11 08:32:00,
2013-06-11 04:42:00,61.0,61.0,-100.00,SW,218,1.0,8.0,99,0.00,,,1.24,0.000000,,2013-06-11 08:42:00,
2013-06-11 04:52:00,61.0,61.0,-100.00,SW,218,1.0,8.0,99,0.00,,,1.24,0.000000,,2013-06-11 08:52:00,
2013-06-11 05:01:00,61.0,61.0,-100.00,South,175,2.0,4.0,99,0.02,,,1.23,0.000000,,2013-06-11 09:01:00,
2013-06-11 05:22:00,61.0,61.0,-100.00,South,175,2.0,4.0,99,0.02,,,1.23,0.000000,,2013-06-11 09:22:00,
2013-06-11 05:33:00,61.0,61.0,-100.00,South,175,2.0,4.0,99,0.02,,,1.23,0.000000,,2013-06-11 09:33:00,
2013-06-11 05:43:00,61.0,61.0,-100.00,South,175,2.0,4.0,99,0.02,,,1.23,0.000000,,2013-06-11 09:43:00,
2013-06-11 05:53:00,61.0,61.0,-100.00,South,175,2.0,4.0,99,0.02,,,1.23,0.000000,,2013-06-11 09:53:00,
2013-06-11 06:01:00,61.0,61.0,-100.00,West,266,3.0,7.0,100,0.00,,,1.19,0.000000,,2013-06-11 10:01:00,
2013-06-11 06:23:00,61.0,61.0,-100.00,West,266,3.0,7.0,100,0.00,,,1.19,0.000000,,2013-06-11 10:23:00,
2013-06-11 06:33:00,61.0,61.0,-100.00,West,266,3.0,7.0,100,0.00,,,1.19,0.000000,,2013-06-11 10:33:00,
2013-06-11 06:43:00,61.0,61.0,-100.00,West,266,3.0,7.0,100,0.00,,,1.19,0.000000,,2013-06-11 10:43:00,
2013-06-11 06:52:00,61.0,61.0,-100.00,West,266,3.0,7.0,100,0.00,,,1.19,0.000000,,2013-06-11 10:52:00,
2013-06-11 07:01:00,62.0,61.0,-100.00,West,274,3.0,11.0,95,0.01,,,-99.99,26.000000,,2013-06-11 11:01:00,
2013-06-11 07:22:00,62.0,61.0,-100.00,West,274,3.0,11.0,95,0.01,,,-99.99,26.000000,,2013-06-11 11:22:00,
2013-06-11 07:32:00,62.0,61.0,-100.00,West,274,3.0,11.0,95,0.01,,,-99.99,26.000000,,2013-06-11 11:32:00,
2013-06-11 07:42:00,62.0,61.0,-100.00,West,274,3.0,11.0,95,0.01,,,-99.99,26.000000,,2013-06-11 11:42:00,
2013-06-11 07:52:00,62.0,61.0,-100.00,West,274,3.0,11.0,95,0.01,,,-99.99,26.000000,,2013-06-11 11:52:00,
2013-06-11 08:01:00,66.0,63.0,-100.00,West,272,4.0,12.0,91,0.00,,,-99.99,167.000000,,2013-06-11 12:01:00,
2013-06-11 08:22:00,66.0,63.0,-100.00,West,272,4.0,12.0,91,0.00,,,-99.99,167.000000,,2013-06-11 12:22:00,
2013-06-11 08:32:00,66.0,63.0,-100.00,West,272,4.0,12.0,91,0.00,,,-99.99,167.000000,,2013-06-11 12:32:00,
2013-06-11 08:42:00,66.0,63.0,-100.00,West,272,4.0,12.0,91,0.00,,,-99.99,167.000000,,2013-06-11 12:42:00,
2013-06-11 08:52:00,66.0,63.0,-100.00,West,272,4.0,12.0,91,0.00,,,-99.99,167.000000,,2013-06-11 12:52:00,
2013-06-11 09:01:00,66.0,60.0,-100.00,SW,215,4.0,12.0,82,0.00,,,0.77,252.000000,,2013-06-11 13:01:00,
2013-06-11 09:22:00,66.0,60.0,-100.00,SW,215,4.0,12.0,82,0.00,,,0.77,252.000000,,2013-06-11 13:22:00,
2013-06-11 09:32:00,66.0,60.0,-100.00,SW,215,4.0,12.0,82,0.00,,,0.77,252.000000,,2013-06-11 13:32:00,
2013-06-11 09:42:00,66.0,60.0,-100.00,SW,215,4.0,12.0,82,0.00,,,0.77,252.000000,,2013-06-11 13:42:00,
2013-06-11 09:52:00,66.0,60.0,-100.00,SW,215,4.0,12.0,82,0.00,,,0.77,252.000000,,2013-06-11 13:52:00,
2013-06-11 10:01:00,68.0,59.0,-100.00,West,262,5.0,14.0,73,0.00,,,0.63,464.000000,,2013-06-11 14:01:00,
2013-06-11 10:22:00,68.0,59.0,-100.00,West,262,5.0,14.0,73,0.00,,,0.63,464.000000,,2013-06-11 14:22:00,
2013-06-11 10:32:00,68.0,59.0,-100.00,West,262,5.0,14.0,73,0.00,,,0.63,464.000000,,2013-06-11 14:32:00,
2013-06-11 10:42:00,68.0,59.0,-100.00,West,262,5.0,14.0,73,0.00,,,0.63,464.000000,,2013-06-11 14:42:00,
2013-06-11 10:53:00,68.0,59.0,-100.00,West,262,5.0,14.0,73,0.00,,,0.63,464.000000,,2013-06-11 14:53:00,
2013-06-11 11:01:00,69.0,61.0,-100.00,WSW,257,5.0,16.0,77,0.00,,,0.52,418.000000,,2013-06-11 15:01:00,
2013-06-11 11:22:00,69.0,61.0,-100.00,WSW,257,5.0,16.0,77,0.00,,,0.52,418.000000,,2013-06-11 15:22:00,
2013-06-11 11:33:00,69.0,61.0,-100.00,WSW,257,5.0,16.0,77,0.00,,,0.52,418.000000,,2013-06-11 15:33:00,
2013-06-11 11:43:00,69.0,61.0,-100.00,WSW,257,5.0,16.0,77,0.00,,,0.52,418.000000,,2013-06-11 15:43:00,
2013-06-11 11:53:00,69.0,61.0,-100.00,WSW,257,5.0,16.0,77,0.00,,,0.52,418.000000,,2013-06-11 15:53:00,
2013-06-11 13:01:00,73.0,63.0,-100.00,WNW,301,5.0,13.0,70,-99.99,,,0.52,717.000000,,2013-06-11 17:01:00,
2013-06-11 13:22:00,73.0,63.0,-100.00,WNW,301,5.0,13.0,70,-99.99,,,0.52,717.000000,,2013-06-11 17:22:00,
2013-06-11 13:32:00,73.0,63.0,-100.00,WNW,301,5.0,13.0,70,-99.99,,,0.52,717.000000,,2013-06-11 17:32:00,
2013-06-11 13:43:00,73.0,63.0,-100.00,WNW,301,5.0,13.0,70,-99.99,,,0.52,717.000000,,2013-06-11 17:43:00,
2013-06-11 13:53:00,73.0,63.0,-100.00,WNW,301,5.0,13.0,70,-99.99,,,0.52,717.000000,,2013-06-11 17:53:00,
2013-06-11 14:01:00,70.0,60.0,-100.00,SW,228,4.0,12.0,71,0.00,,,0.52,449.000000,,2013-06-11 18:01:00,
2013-06-11 14:22:00,70.0,60.0,-100.00,SW,228,4.0,12.0,71,0.00,,,0.52,449.000000,,2013-06-11 18:22:00,
2013-06-11 14:33:00,70.0,60.0,-100.00,SW,228,4.0,12.0,71,0.00,,,0.52,449.000000,,2013-06-11 18:33:00,
2013-06-11 14:43:00,70.0,60.0,-100.00,SW,228,4.0,12.0,71,0.00,,,0.52,449.000000,,2013-06-11 18:43:00,
2013-06-11 14:52:00,70.0,60.0,-100.00,SW,228,4.0,12.0,71,0.00,,,0.52,449.000000,,2013-06-11 18:52:00,
2013-06-11 15:01:00,72.0,60.0,-100.00,NW,313,5.0,12.0,67,0.00,,,0.34,588.000000,,2013-06-11 19:01:00,
2013-06-11 15:22:00,72.0,60.0,-100.00,NW,313,5.0,12.0,67,0.00,,,0.34,588.000000,,2013-06-11 19:22:00,
2013-06-11 15:33:00,72.0,60.0,-100.00,NW,313,5.0,12.0,67,0.00,,,0.34,588.000000,,2013-06-11 19:33:00,
2013-06-11 15:42:00,72.0,60.0,-100.00,NW,313,5.0,12.0,67,0.00,,,0.34,588.000000,,2013-06-11 19:42:00,
2013-06-11 15:53:00,72.0,60.0,-100.00,NW,313,5.0,12.0,67,0.00,,,0.34,588.000000,,2013-06-11 19:53:00,
2013-06-11 16:01:00,74.0,61.0,-100.00,SW,218,5.0,12.0,63,0.00,,,0.05,734.000000,,2013-06-11 20:01:00,
2013-06-11 16:22:00,74.0,61.0,-100.00,SW,218,5.0,12.0,63,0.00,,,0.05,734.000000,,2013-06-11 20:22:00,
2013-06-11 16:32:00,74.0,61.0,-100.00,SW,218,5.0,12.0,63,0.00,,,0.05,734.000000,,2013-06-11 20:32:00,
2013-06-11 16:42:00,74.0,61.0,-100.00,SW,218,5.0,12.0,63,0.00,,,0.05,734.000000,,2013-06-11 20:42:00,
2013-06-11 16:52:00,74.0,61.0,-100.00,SW,218,5.0,12.0,63,0.00,,,0.05,734.000000,,2013-06-11 20:52:00,
2013-06-11 17:01:00,78.0,62.0,-100.00,South,178,3.0,14.0,59,0.00,,,0.04,822.000000,,2013-06-11 21:01:00,
2013-06-11 17:22:00,78.0,62.0,-100.00,South,178,3.0,14.0,59,0.00,,,0.04,822.000000,,2013-06-11 21:22:00,
2013-06-11 17:33:00,78.0,62.0,-100.00,South,178,3.0,14.0,59,0.00,,,0.04,822.000000,,2013-06-11 21:33:00,
2013-06-11 17:42:00,78.0,62.0,-100.00,South,178,3.0,14.0,59,0.00,,,0.04,822.000000,,2013-06-11 21:42:00,
2013-06-11 17:53:00,78.0,62.0,-100.00,South,178,3.0,14.0,59,0.00,,,0.04,822.000000,,2013-06-11 21:53:00,
2013-06-11 18:01:00,77.0,60.0,-100.00,West,267,3.0,20.0,55,0.00,,,0.04,560.000000,,2013-06-11 22:01:00,
2013-06-11 18:22:00,77.0,60.0,-100.00,West,267,3.0,20.0,55,0.00,,,0.04,560.000000,,2013-06-11 22:22:00,
2013-06-11 18:33:00,77.0,60.0,-100.00,West,267,3.0,20.0,55,0.00,,,0.04,560.000000,,2013-06-11 22:33:00,
2013-06-11 18:42:00,77.0,60.0,-100.00,West,267,3.0,20.0,55,0.00,,,0.04,560.000000,,2013-06-11 22:42:00,
2013-06-11 18:52:00,77.0,60.0,-100.00,West,267,3.0,20.0,55,0.00,,,0.04,560.000000,,2013-06-11 22:52:00,
2013-06-11 19:01:00,74.0,60.0,-100.00,South,187,2.0,7.0,62,0.00,,,0.04,267.000000,,2013-06-11 23:01:00,
2013-06-11 19:22:00,74.0,60.0,-100.00,South,187,2.0,7.0,62,0.00,,,0.04,267.000000,,2013-06-11 23:22:00,
2013-06-11 19:32:00,74.0,60.0,-100.00,South,187,2.0,7.0,62,0.00,,,0.04,267.000000,,2013-06-11 23:32:00,
2013-06-11 19:42:00,74.0,60.0,-100.00,South,187,2.0,7.0,62,0.00,,,0.04,267.000000,,2013-06-11 23:42:00,
2013-06-11 19:52:00,74.0,60.0,-100.00,South,187,2.0,7.0,62,0.00,,,0.04,267.000000,,2013-06-11 23:52:00,
2013-06-11 20:01:00,73.0,60.0,-100.00,WNW,297,3.0,7.0,64,0.00,,,0.04,112.000000,,2013-06-12 00:01:00,
2013-06-11 20:22:00,73.0,60.0,-100.00,WNW,297,3.0,7.0,64,0.00,,,0.04,112.000000,,2013-06-12 00:22:00,
2013-06-11 20:32:00,73.0,60.0,-100.00,WNW,297,3.0,7.0,64,0.00,,,0.04,112.000000,,2013-06-12 00:32:00,
2013-06-11 20:42:00,73.0,60.0,-100.00,WNW,297,3.0,7.0,64,0.00,,,0.04,112.000000,,2013-06-12 00:42:00,
2013-06-11 20:52:00,73.0,60.0,-100.00,WNW,297,3.0,7.0,64,0.00,,,0.04,112.000000,,2013-06-12 00:52:00,
2013-06-11 21:01:00,69.0,58.0,-100.00,West,269,2.0,10.0,67,0.00,,,0.04,17.000000,,2013-06-12 01:01:00,
2013-06-11 21:22:00,69.0,58.0,-100.00,West,269,2.0,10.0,67,0.00,,,0.04,17.000000,,2013-06-12 01:22:00,
2013-06-11 21:32:00,69.0,58.0,-100.00,West,269,2.0,10.0,67,0.00,,,0.04,17.000000,,2013-06-12 01:32:00,
2013-06-11 21:42:00,69.0,58.0,-100.00,West,269,2.0,10.0,67,0.00,,,0.04,17.000000,,2013-06-12 01:42:00,
2013-06-11 21:52:00,69.0,58.0,-100.00,West,269,2.0,10.0,67,0.00,,,0.04,17.000000,,2013-06-12 01:52:00,
2013-06-11 22:01:00,69.0,58.0,-100.00,West,270,3.0,11.0,69,0.00,,,0.04,0.000000,,2013-06-12 02:01:00,
2013-06-11 22:22:00,69.0,58.0,-100.00,West,270,3.0,11.0,69,0.00,,,0.04,0.000000,,2013-06-12 02:22:00,
2013-06-11 22:32:00,69.0,58.0,-100.00,West,270,3.0,11.0,69,0.00,,,0.04,0.000000,,2013-06-12 02:32:00,
2013-06-11 22:42:00,69.0,58.0,-100.00,West,270,3.0,11.0,69,0.00,,,0.04,0.000000,,2013-06-12 02:42:00,
2013-06-11 22:52:00,69.0,58.0,-100.00,West,270,3.0,11.0,69,0.00,,,0.04,0.000000,,2013-06-12 02:52:00,
2013-06-11 23:01:00,69.0,60.0,-100.00,SW,231,3.0,9.0,72,0.00,,,0.04,0.000000,,2013-06-12 03:01:00,
2013-06-11 23:22:00,69.0,60.0,-100.00,SW,231,3.0,9.0,72,0.00,,,0.04,0.000000,,2013-06-12 03:22:00,
2013-06-11 23:33:00,69.0,60.0,-100.00,SW,231,3.0,9.0,72,0.00,,,0.04,0.000000,,2013-06-12 03:33:00,
2013-06-11 23:43:00,69.0,60.0,-100.00,SW,231,3.0,9.0,72,0.00,,,0.04,0.000000,,2013-06-12 03:43:00,
2013-06-11 23:53:00,69.0,60.0,-100.00,SW,231,3.0,9.0,72,0.00,,,0.04,0.000000,,2013-06-12 03:53:00,